createdAt,value
2022-10-06T00:00:58.158Z,95940.50
2022-10-06T00:03:45.429Z,95943.97
2022-10-06T00:06:21.512Z,95944.00
2022-10-06T00:09:08.409Z,95944.84
2022-10-06T00:11:41.775Z,95950.78
2022-10-06T00:14:28.437Z,95949.94
2022-10-06T00:17:01.506Z,95940.63
2022-10-06T00:19:48.413Z,95941.47
2022-10-06T00:22:21.480Z,95931.34
2022-10-06T00:25:08.412Z,95933.09
2022-10-06T00:27:43.478Z,95926.31
2022-10-06T00:30:32.455Z,95927.16
2022-10-06T00:33:15.421Z,95926.34
2022-10-06T00:36:07.434Z,95924.66
2022-10-06T00:38:48.427Z,95926.38
2022-10-06T00:41:35.411Z,95929.81
2022-10-06T00:44:15.445Z,95927.25
2022-10-06T00:47:09.428Z,95930.66
2022-10-06T00:50:04.423Z,95929.81
2022-10-06T00:52:51.430Z,95925.56
2022-10-06T00:55:31.663Z,95930.63
2022-10-06T00:58:20.434Z,95928.94
2022-10-06T01:01:02.448Z,95931.44
2022-10-06T01:04:04.433Z,95932.25
2022-10-06T01:07:02.453Z,95933.97
2022-10-06T01:09:56.458Z,95927.94
2022-10-06T01:12:50.456Z,95935.59
2022-10-06T01:15:37.524Z,95927.06
2022-10-06T01:18:17.759Z,95932.97
2022-10-06T01:21:16.474Z,95939.72
2022-10-06T01:23:50.072Z,95935.47
2022-10-06T01:26:39.437Z,95934.59
2022-10-06T01:29:12.533Z,95937.97
2022-10-06T01:31:59.465Z,95937.09
2022-10-06T01:34:32.556Z,95944.72
2022-10-06T01:37:19.454Z,95949.78
2022-10-06T01:39:52.657Z,95942.09
2022-10-06T01:42:40.470Z,95938.66
2022-10-06T01:45:14.511Z,95947.97
2022-10-06T01:48:01.479Z,95941.13
2022-10-06T01:50:34.582Z,95938.56
2022-10-06T01:53:21.431Z,95939.41
2022-10-06T01:55:54.534Z,95941.94
2022-10-06T01:58:41.451Z,95937.69
2022-10-06T02:01:22.514Z,95941.94
2022-10-06T02:04:16.525Z,95944.53
2022-10-06T02:07:10.511Z,95958.97
2022-10-06T02:10:04.476Z,95951.31
2022-10-06T02:12:51.465Z,95948.00
2022-10-06T02:15:26.931Z,95952.28
2022-10-06T02:18:13.472Z,95955.69
2022-10-06T02:20:53.488Z,95964.13
2022-10-06T02:23:47.468Z,95959.88
2022-10-06T02:26:41.486Z,95965.78
2022-10-06T02:29:35.480Z,95956.38
2022-10-06T02:32:22.475Z,95962.31
2022-10-06T02:35:02.464Z,95959.72
2022-10-06T02:37:56.460Z,95974.97
2022-10-06T02:40:43.499Z,95980.91
2022-10-06T02:43:16.581Z,95979.19
2022-10-06T02:46:05.540Z,95982.56
2022-10-06T02:48:42.322Z,95983.38
2022-10-06T02:51:29.478Z,95978.31
2022-10-06T02:54:09.490Z,95983.38
2022-10-06T02:57:03.463Z,95985.06
2022-10-06T02:59:50.506Z,95990.09
2022-10-06T03:02:30.618Z,95991.78
2022-10-06T03:05:17.502Z,95996.88
2022-10-06T03:07:57.496Z,95999.38
2022-10-06T03:10:44.500Z,96000.22
2022-10-06T03:13:17.570Z,95997.66
2022-10-06T03:16:04.522Z,95993.38
2022-10-06T03:18:37.575Z,96004.38
2022-10-06T03:21:25.506Z,95999.28
2022-10-06T03:23:59.568Z,95998.41
2022-10-06T03:26:48.505Z,96000.06
2022-10-06T03:29:28.478Z,96000.03
2022-10-06T03:32:15.523Z,96005.09
2022-10-06T03:34:48.570Z,96005.97
2022-10-06T03:37:35.485Z,96010.25
2022-10-06T03:40:08.609Z,96011.91
2022-10-06T03:42:55.489Z,96011.13
2022-10-06T03:45:35.535Z,96011.97
2022-10-06T03:48:29.777Z,96012.84
2022-10-06T03:51:45.500Z,96007.75
2022-10-06T03:54:32.509Z,96016.25
2022-10-06T03:57:05.624Z,96012.03
2022-10-06T03:59:52.611Z,96011.19
2022-10-06T04:02:33.616Z,96012.06
2022-10-06T04:05:20.554Z,96021.38
2022-10-06T04:08:00.495Z,96023.06
2022-10-06T04:10:47.536Z,96021.41
2022-10-06T04:13:23.592Z,96032.44
2022-10-06T04:16:24.642Z,96033.31
2022-10-06T04:19:00.608Z,96032.44
2022-10-06T04:21:49.531Z,96033.25
2022-10-06T04:24:22.616Z,96034.06
2022-10-06T04:27:28.537Z,96037.47
2022-10-06T04:30:08.543Z,96039.16
2022-10-06T04:32:55.526Z,96040.78
2022-10-06T04:35:28.594Z,96040.75
2022-10-06T04:38:15.540Z,96036.56
2022-10-06T04:40:55.522Z,96040.00
2022-10-06T04:43:42.545Z,96042.59
2022-10-06T04:46:41.481Z,96050.19
2022-10-06T04:49:23.541Z,96051.03
2022-10-06T04:51:56.604Z,96052.75
2022-10-06T04:54:43.519Z,96049.38
2022-10-06T04:57:16.657Z,96045.97
2022-10-06T05:00:21.520Z,96054.47
2022-10-06T05:02:55.932Z,96046.03
2022-10-06T05:05:42.541Z,96046.03
2022-10-06T05:08:22.529Z,96043.53
2022-10-06T05:11:22.481Z,96044.47
2022-10-06T05:14:11.516Z,96043.66
2022-10-06T05:16:51.605Z,96047.94
2022-10-06T05:19:38.552Z,96050.53
2022-10-06T05:22:11.631Z,96048.03
2022-10-06T05:25:00.542Z,96044.66
2022-10-06T05:27:40.537Z,96057.41
2022-10-06T05:30:27.549Z,96059.97
2022-10-06T05:33:07.542Z,96064.22
2022-10-06T05:36:15.603Z,96065.94
2022-10-06T05:38:49.635Z,96067.72
2022-10-06T05:41:38.554Z,96073.72
2022-10-06T05:44:18.557Z,96065.25
2022-10-06T05:47:12.546Z,96082.25
2022-10-06T05:49:59.604Z,96071.28
2022-10-06T05:52:32.877Z,96084.00
2022-10-06T05:55:19.559Z,96091.69
2022-10-06T05:57:59.545Z,96091.72
2022-10-06T06:00:46.542Z,96094.28
2022-10-06T06:03:19.634Z,96094.31
2022-10-06T06:06:06.557Z,96098.59
2022-10-06T06:09:01.596Z,96106.28
2022-10-06T06:11:51.563Z,96105.50
2022-10-06T06:14:53.588Z,96118.28
2022-10-06T06:17:47.580Z,96113.22
2022-10-06T06:20:41.588Z,96120.06
2022-10-06T06:23:28.564Z,96121.78
2022-10-06T06:26:13.550Z,96131.16
2022-10-06T06:29:02.601Z,96127.78
2022-10-06T06:31:37.745Z,96125.28
2022-10-06T06:34:24.599Z,96134.66
2022-10-06T06:37:06.777Z,96137.25
2022-10-06T06:39:55.595Z,96145.75
2022-10-06T06:42:28.646Z,96143.25
2022-10-06T06:45:15.579Z,96152.63
2022-10-06T06:47:49.741Z,96152.66
2022-10-06T06:50:36.567Z,96146.72
2022-10-06T06:53:14.040Z,96145.06
2022-10-06T06:56:02.609Z,96148.44
2022-10-06T06:58:35.678Z,96148.47
2022-10-06T07:01:25.626Z,96154.44
2022-10-06T07:04:01.657Z,96158.72
2022-10-06T07:07:05.614Z,96155.34
2022-10-06T07:09:52.581Z,96157.91
2022-10-06T07:12:25.637Z,96158.78
2022-10-06T07:15:31.670Z,96161.34
2022-10-06T07:18:29.838Z,96162.22
2022-10-06T07:21:44.593Z,96166.50
2022-10-06T07:24:49.607Z,96158.03
2022-10-06T07:27:22.716Z,96151.25
2022-10-06T07:30:12.588Z,96154.69
2022-10-06T07:32:45.767Z,96156.41
2022-10-06T07:35:32.610Z,96147.94
2022-10-06T07:38:16.597Z,96149.72
2022-10-06T07:41:19.333Z,96154.03
2022-10-06T07:44:13.586Z,96163.44
2022-10-06T07:47:08.628Z,96157.47
2022-10-06T07:49:55.594Z,96161.78
2022-10-06T07:52:28.900Z,96155.84
2022-10-06T07:55:15.620Z,96159.25
2022-10-06T07:57:51.760Z,96162.69
2022-10-06T08:00:39.623Z,96161.00
2022-10-06T08:03:17.004Z,96156.78
2022-10-06T08:06:06.667Z,96165.31
2022-10-06T08:08:40.704Z,96166.19
2022-10-06T08:11:28.656Z,96172.19
2022-10-06T08:14:01.689Z,96169.69
2022-10-06T08:16:48.605Z,96169.72
2022-10-06T08:19:28.616Z,96172.31
2022-10-06T08:22:16.628Z,96177.47
2022-10-06T08:25:05.342Z,96185.16
2022-10-06T08:27:55.658Z,96177.53
2022-10-06T08:30:35.628Z,96177.56
2022-10-06T08:33:29.616Z,96183.56
2022-10-06T08:36:30.963Z,96181.88
2022-10-06T08:39:18.633Z,96182.72
2022-10-06T08:41:56.711Z,96183.59
2022-10-06T08:44:56.936Z,96179.34
2022-10-06T08:47:34.045Z,96171.69
2022-10-06T08:50:20.722Z,96170.81
2022-10-06T08:53:02.715Z,96169.97
2022-10-06T08:55:57.636Z,96169.94
2022-10-06T08:58:56.632Z,96161.41
2022-10-06T09:02:01.668Z,96152.84
2022-10-06T09:04:48.631Z,96153.69
2022-10-06T09:07:38.653Z,96157.94
2022-10-06T09:10:50.668Z,96153.63
2022-10-06T09:13:50.651Z,96163.84
2022-10-06T09:16:28.802Z,96152.72
2022-10-06T09:20:01.650Z,96156.94
2022-10-06T09:22:38.785Z,96155.16
2022-10-06T09:25:28.650Z,96154.25
2022-10-06T09:28:03.773Z,96161.00
2022-10-06T09:30:55.206Z,96156.66
2022-10-06T09:33:32.121Z,96160.03
2022-10-06T09:36:18.711Z,96151.41
2022-10-06T09:38:55.291Z,96161.59
2022-10-06T09:41:45.684Z,96159.78
2022-10-06T09:44:33.894Z,96157.94
2022-10-06T09:47:35.669Z,96168.09
2022-10-06T09:50:12.056Z,96164.56
2022-10-06T09:53:11.670Z,96167.91
2022-10-06T09:55:44.790Z,96173.81
2022-10-06T09:58:40.650Z,96180.63
2022-10-06T10:01:15.876Z,96182.28
2022-10-06T10:04:20.133Z,96173.66
2022-10-06T10:06:54.785Z,96179.56
2022-10-06T10:09:41.686Z,96181.22
2022-10-06T10:12:31.285Z,96183.75
2022-10-06T10:15:17.697Z,96180.25
2022-10-06T10:17:59.754Z,96175.06
2022-10-06T10:21:14.670Z,96185.34
2022-10-06T10:24:05.702Z,96181.91
2022-10-06T10:27:20.703Z,96174.97
2022-10-06T10:30:05.695Z,96180.91
2022-10-06T10:33:10.713Z,96181.72
2022-10-06T10:35:54.676Z,96185.94
2022-10-06T10:38:51.698Z,96191.06
2022-10-06T10:41:47.712Z,96191.00
2022-10-06T10:44:41.691Z,96196.16
2022-10-06T10:47:44.707Z,96197.81
2022-10-06T10:50:36.702Z,96196.97
2022-10-06T10:53:42.759Z,96195.25
2022-10-06T10:56:32.715Z,96189.16
2022-10-06T10:59:21.920Z,96182.28
2022-10-06T11:02:25.715Z,96189.97
2022-10-06T11:05:11.749Z,96183.91
2022-10-06T11:08:10.726Z,96181.22
2022-10-06T11:11:08.681Z,96188.88
2022-10-06T11:13:59.731Z,96183.69
2022-10-06T11:16:58.705Z,96186.25
2022-10-06T11:20:01.712Z,96184.38
2022-10-06T11:22:57.721Z,96185.16
2022-10-06T11:26:10.715Z,96176.50
2022-10-06T11:29:16.888Z,96169.53
2022-10-06T11:32:23.709Z,96171.16
2022-10-06T11:35:34.726Z,96175.31
2022-10-06T11:38:25.792Z,96161.53
2022-10-06T11:41:35.718Z,96166.59
2022-10-06T11:44:30.715Z,96168.25
2022-10-06T11:47:45.759Z,96170.81
2022-10-06T11:50:37.883Z,96173.31
2022-10-06T11:53:45.720Z,96168.09
2022-10-06T11:56:31.712Z,96162.06
2022-10-06T11:59:30.741Z,96165.44
2022-10-06T12:02:04.995Z,96173.06
2022-10-06T12:05:52.359Z,96170.44
2022-10-06T12:08:18.787Z,96177.28
2022-10-06T12:11:05.739Z,96175.53
2022-10-06T12:17:24.743Z,96175.38
2022-10-06T12:20:36.740Z,96168.53
2022-10-06T12:23:47.727Z,96177.03
2022-10-06T12:26:36.122Z,96180.41
2022-10-06T12:29:34.740Z,96185.56
2022-10-06T12:32:47.825Z,96188.94
2022-10-06T12:35:38.748Z,96182.00
2022-10-06T12:38:37.508Z,96183.66
2022-10-06T12:42:01.758Z,96180.25
2022-10-06T12:44:50.743Z,96184.50
2022-10-06T12:47:54.758Z,96185.38
2022-10-06T12:50:50.752Z,96183.66
2022-10-06T12:53:52.760Z,96185.41
2022-10-06T12:56:42.770Z,96191.41
2022-10-06T12:59:40.746Z,96195.72
2022-10-06T13:02:30.813Z,96191.41
2022-10-06T13:05:13.779Z,96192.31
2022-10-06T13:08:15.759Z,96194.91
2022-10-06T13:11:24.795Z,96204.41
2022-10-06T13:14:19.783Z,96205.38
2022-10-06T13:17:03.407Z,96197.63
2022-10-06T13:19:50.762Z,96201.97
2022-10-06T13:22:23.827Z,96198.59
2022-10-06T13:25:10.779Z,96206.38
2022-10-06T13:27:45.564Z,96208.13
2022-10-06T13:30:36.233Z,96203.91
2022-10-06T13:33:20.766Z,96215.19
2022-10-06T13:36:09.798Z,96215.25
2022-10-06T13:38:54.795Z,96223.91
2022-10-06T13:41:44.768Z,96223.06
2022-10-06T13:44:18.794Z,96230.88
2022-10-06T13:47:09.796Z,96234.34
2022-10-06T13:50:17.347Z,96237.81
2022-10-06T13:53:05.781Z,96234.47
2022-10-06T13:55:45.781Z,96240.50
2022-10-06T13:58:42.823Z,96237.13
2022-10-06T14:01:44.810Z,96234.59
2022-10-06T14:04:34.701Z,96232.94
2022-10-06T14:07:17.775Z,96236.38
2022-10-06T14:10:11.806Z,96236.44
2022-10-06T14:12:58.786Z,96238.16
2022-10-06T14:15:34.945Z,96241.59
2022-10-06T14:18:26.816Z,96251.03
2022-10-06T14:21:01.888Z,96257.06
2022-10-06T14:23:57.812Z,96259.63
2022-10-06T14:26:37.536Z,96251.94
2022-10-06T14:29:24.833Z,96259.69
2022-10-06T14:31:57.902Z,96272.56
2022-10-06T14:34:45.794Z,96271.72
2022-10-06T14:37:18.881Z,96269.16
2022-10-06T14:40:10.119Z,96264.88
2022-10-06T14:42:51.815Z,96265.72
2022-10-06T14:45:45.826Z,96271.72
2022-10-06T14:48:34.838Z,96264.94
2022-10-06T14:51:09.503Z,96270.97
2022-10-06T14:54:00.795Z,96268.44
2022-10-06T14:56:37.816Z,96276.16
2022-10-06T14:59:24.822Z,96278.75
2022-10-06T15:02:04.847Z,96271.94
2022-10-06T15:04:51.817Z,96278.81
2022-10-06T15:07:49.762Z,96277.97
2022-10-06T15:10:44.827Z,96279.75
2022-10-06T15:13:31.832Z,96287.47
2022-10-06T15:16:12.927Z,96292.63
2022-10-06T15:18:59.818Z,96284.09
2022-10-06T15:21:40.870Z,96284.97
2022-10-06T15:24:27.843Z,96278.13
2022-10-06T15:27:24.589Z,96283.28
2022-10-06T15:30:11.830Z,96289.28
2022-10-06T15:32:44.893Z,96285.03
2022-10-06T15:35:31.861Z,96296.16
2022-10-06T15:38:05.913Z,96297.91
2022-10-06T15:40:45.841Z,96293.66
2022-10-06T15:43:45.886Z,96296.22
2022-10-06T15:46:25.910Z,96299.69
2022-10-06T15:49:12.125Z,96295.41
2022-10-06T15:51:57.850Z,96300.59
2022-10-06T15:54:49.845Z,96311.78
2022-10-06T15:57:31.865Z,96310.94
2022-10-06T16:00:11.929Z,96311.00
2022-10-06T16:02:51.892Z,96318.72
2022-10-06T16:05:49.149Z,96321.34
2022-10-06T16:08:42.982Z,96324.81
2022-10-06T16:11:36.872Z,96326.56
2022-10-06T16:14:30.872Z,96327.44
2022-10-06T16:17:18.847Z,96334.34
2022-10-06T16:20:01.892Z,96333.50
2022-10-06T16:22:55.869Z,96342.13
2022-10-06T16:25:42.877Z,96352.44
2022-10-06T16:28:15.976Z,96346.47
2022-10-06T16:31:02.886Z,96346.50
2022-10-06T16:33:35.950Z,96353.34
2022-10-06T16:36:23.895Z,96347.34
2022-10-06T16:38:58.925Z,96349.09
2022-10-06T16:41:45.873Z,96355.97
2022-10-06T16:44:18.963Z,96354.22
2022-10-06T16:47:05.893Z,96356.84
2022-10-06T16:49:45.877Z,96356.00
2022-10-06T16:52:32.903Z,96367.13
2022-10-06T16:55:05.977Z,96367.19
2022-10-06T16:57:52.861Z,96368.94
2022-10-06T17:00:32.930Z,96368.09
2022-10-06T17:03:26.882Z,96368.13
2022-10-06T17:06:26.954Z,96373.31
2022-10-06T17:09:22.878Z,96378.50
2022-10-06T17:12:11.019Z,96381.09
2022-10-06T17:14:43.984Z,96379.41
2022-10-06T17:17:30.898Z,96371.75
2022-10-06T17:20:10.906Z,96370.06
2022-10-06T17:22:58.922Z,96378.66
2022-10-06T17:25:32.112Z,96375.25
2022-10-06T17:28:18.974Z,96387.25
2022-10-06T17:31:05.935Z,96383.88
2022-10-06T17:33:53.884Z,96389.00
2022-10-06T17:36:28.972Z,96392.44
2022-10-06T17:39:18.926Z,96395.91
2022-10-06T17:41:59.921Z,96392.50
2022-10-06T17:44:53.984Z,96397.63
2022-10-06T17:47:40.928Z,96398.50
2022-10-06T17:50:14.436Z,96395.97
2022-10-06T17:53:00.916Z,96404.53
2022-10-06T17:55:33.965Z,96403.69
2022-10-06T17:58:20.903Z,96405.41
2022-10-06T18:00:55.927Z,96399.44
2022-10-06T18:03:44.975Z,96401.16
2022-10-06T18:06:25.906Z,96402.88
2022-10-06T18:09:19.898Z,96403.75
2022-10-06T18:12:08.931Z,96408.88
2022-10-06T18:14:43.351Z,96403.75
2022-10-06T18:17:30.931Z,96398.59
2022-10-06T18:20:13.955Z,96402.84
2022-10-06T18:23:00.920Z,96400.28
2022-10-06T18:25:34.009Z,96402.00
2022-10-06T18:28:20.915Z,96408.88
2022-10-06T18:31:03.924Z,96410.56
2022-10-06T18:37:13.949Z,96419.97
2022-10-06T18:40:11.934Z,96415.72
2022-10-06T18:43:05.943Z,96422.56
2022-10-06T18:46:10.964Z,96421.69
2022-10-06T18:48:55.122Z,96414.03
2022-10-06T18:51:44.971Z,96421.72
2022-10-06T18:54:31.932Z,96421.75
2022-10-06T18:57:20.738Z,96426.88
2022-10-06T18:59:57.009Z,96433.72
2022-10-06T19:02:48.320Z,96427.75
2022-10-06T19:05:28.953Z,96430.31
2022-10-06T19:08:22.938Z,96425.19
2022-10-06T19:11:36.950Z,96427.75
2022-10-06T19:14:42.950Z,96432.88
2022-10-06T19:17:30.931Z,96438.03
2022-10-06T19:20:11.067Z,96434.63
2022-10-06T19:23:04.959Z,96441.47
2022-10-06T19:25:58.935Z,96446.59
2022-10-06T19:28:52.951Z,96447.44
2022-10-06T19:31:39.945Z,96451.72
2022-10-06T19:34:22.943Z,96446.59
2022-10-06T19:37:16.953Z,96456.84
2022-10-06T19:40:03.945Z,96457.72
2022-10-06T19:42:57.952Z,96457.72
2022-10-06T19:45:45.033Z,96461.16
2022-10-06T19:48:22.173Z,96460.31
2022-10-06T19:51:20.944Z,96466.28
2022-10-06T19:53:54.028Z,96475.69
2022-10-06T19:56:40.966Z,96478.28
2022-10-06T19:59:27.960Z,96474.81
2022-10-06T20:02:21.962Z,96481.69
2022-10-06T20:05:15.971Z,96485.94
2022-10-06T20:08:10.989Z,96491.91
2022-10-06T20:11:04.987Z,96489.38
2022-10-06T20:13:58.992Z,96491.94
2022-10-06T20:16:48.025Z,96489.38
2022-10-06T20:19:21.063Z,96487.66
2022-10-06T20:22:07.984Z,96493.66
2022-10-06T20:24:47.972Z,96501.34
2022-10-06T20:27:42.184Z,96496.22
2022-10-06T20:30:28.977Z,96497.91
2022-10-06T20:33:13.978Z,96495.34
2022-10-06T20:36:07.985Z,96495.34
2022-10-06T20:39:13.968Z,96495.38
2022-10-06T20:41:55.005Z,96494.50
2022-10-06T20:44:41.997Z,96492.78
2022-10-06T20:47:25.990Z,96498.78
2022-10-06T20:50:13.000Z,96495.34
2022-10-06T20:52:53.980Z,96495.31
2022-10-06T20:55:47.995Z,96497.91
2022-10-06T20:58:35.994Z,96488.50
2022-10-06T21:01:15.216Z,96497.91
2022-10-06T21:04:02.023Z,96495.31
2022-10-06T21:06:35.217Z,96496.22
2022-10-06T21:09:35.023Z,96491.91
2022-10-06T21:12:29.019Z,96485.06
2022-10-06T21:15:19.018Z,96487.63
2022-10-06T21:17:52.076Z,96475.66
2022-10-06T21:20:43.034Z,96479.94
2022-10-06T21:23:18.098Z,96485.94
2022-10-06T21:26:08.059Z,96490.19
2022-10-06T21:28:42.597Z,96493.63
2022-10-06T21:31:32.045Z,96494.47
2022-10-06T21:34:12.040Z,96500.47
2022-10-06T21:37:06.013Z,96497.88
2022-10-06T21:39:53.038Z,96501.28
2022-10-06T21:42:26.098Z,96510.72
2022-10-06T21:45:13.033Z,96507.31
2022-10-06T21:47:46.483Z,96504.72
2022-10-06T21:50:33.026Z,96502.16
2022-10-06T21:53:06.113Z,96503.03
2022-10-06T21:55:53.043Z,96502.16
2022-10-06T21:58:33.055Z,96503.88
2022-10-06T22:01:20.106Z,96503.03
2022-10-06T22:03:54.135Z,96497.03
2022-10-06T22:06:43.050Z,96500.44
2022-10-06T22:09:27.059Z,96503.03
2022-10-06T22:12:21.059Z,96499.63
2022-10-06T22:15:08.045Z,96502.16
2022-10-06T22:17:41.297Z,96494.44
2022-10-06T22:20:28.041Z,96507.28
2022-10-06T22:23:08.114Z,96504.72
2022-10-06T22:25:48.069Z,96504.75
2022-10-06T22:28:28.225Z,96501.31
2022-10-06T22:31:10.109Z,96503.03
2022-10-06T22:33:51.165Z,96506.44
2022-10-06T22:36:32.053Z,96505.59
2022-10-06T22:39:19.070Z,96510.72
2022-10-06T22:42:06.055Z,96503.88
2022-10-06T22:44:39.148Z,96507.31
2022-10-06T22:47:26.079Z,96498.75
2022-10-06T22:50:06.064Z,96497.88
2022-10-06T22:53:00.082Z,96504.72
2022-10-06T22:55:47.063Z,96505.59
2022-10-06T22:58:29.089Z,96506.44
2022-10-06T23:01:18.147Z,96511.56
2022-10-06T23:03:59.083Z,96517.56
2022-10-06T23:06:53.069Z,96509.88
2022-10-06T23:09:40.099Z,96509.00
2022-10-06T23:12:13.150Z,96505.59
2022-10-06T23:15:00.097Z,96517.56
2022-10-06T23:17:33.145Z,96511.56
2022-10-06T23:20:20.099Z,96513.28
2022-10-06T23:22:53.163Z,96506.44
2022-10-06T23:25:44.069Z,96514.13
2022-10-06T23:28:24.143Z,96518.41
2022-10-06T23:31:13.150Z,96520.97
2022-10-06T23:33:46.170Z,96512.41
2022-10-06T23:36:33.092Z,96510.72
2022-10-06T23:39:14.081Z,96514.97
2022-10-06T23:42:01.077Z,96503.84
2022-10-06T23:44:34.166Z,96503.84
2022-10-06T23:47:21.078Z,96502.13
2022-10-06T23:50:01.107Z,96512.41
2022-10-06T23:52:55.098Z,96520.97
2022-10-06T23:55:44.110Z,96524.38
2022-10-06T23:58:17.194Z,96514.13
